sensor_id;sensor_type;location;lat;lon;timestamp;P1;durP1;ratioP1;P2;durP2;ratioP2
8104;SDS011;4095;48.942;9.104;2023-03-13T00:01:51;11.10;;;3.30;;
8104;SDS011;4095;48.942;9.104;2023-03-13T00:04:17;12.20;;;3.50;;
8104;SDS011;4095;48.942;9.104;2023-03-13T00:06:43;11.83;;;3.63;;
8104;SDS011;4095;48.942;9.104;2023-03-13T00:09:09;12.37;;;4.23;;
8104;SDS011;4095;48.942;9.104;2023-03-13T00:11:37;11.70;;;3.57;;
8104;SDS011;4095;48.942;9.104;2023-03-13T00:14:03;8.93;;;3.60;;
8104;SDS011;4095;48.942;9.104;2023-03-13T00:16:30;7.70;;;3.00;;
8104;SDS011;4095;48.942;9.104;2023-03-13T00:18:58;8.97;;;3.30;;
8104;SDS011;4095;48.942;9.104;2023-03-13T00:21:25;9.03;;;3.20;;
8104;SDS011;4095;48.942;9.104;2023-03-13T00:23:52;8.00;;;3.27;;
8104;SDS011;4095;48.942;9.104;2023-03-13T00:26:18;11.23;;;3.50;;
8104;SDS011;4095;48.942;9.104;2023-03-13T00:28:45;8.40;;;3.20;;
8104;SDS011;4095;48.942;9.104;2023-03-13T00:31:15;11.43;;;3.90;;
8104;SDS011;4095;48.942;9.104;2023-03-13T00:33:47;10.07;;;3.30;;
8104;SDS011;4095;48.942;9.104;2023-03-13T00:38:43;10.87;;;3.33;;
8104;SDS011;4095;48.942;9.104;2023-03-13T00:41:13;11.17;;;3.70;;
8104;SDS011;4095;48.942;9.104;2023-03-13T00:43:41;9.50;;;3.00;;
8104;SDS011;4095;48.942;9.104;2023-03-13T00:46:07;8.60;;;3.43;;
8104;SDS011;4095;48.942;9.104;2023-03-13T00:48:34;8.30;;;3.33;;
8104;SDS011;4095;48.942;9.104;2023-03-13T00:51:00;10.53;;;3.30;;
8104;SDS011;4095;48.942;9.104;2023-03-13T00:53:26;8.70;;;3.33;;
8104;SDS011;4095;48.942;9.104;2023-03-13T00:58:24;8.93;;;3.40;;
8104;SDS011;4095;48.942;9.104;2023-03-13T01:00:50;9.13;;;3.50;;
8104;SDS011;4095;48.942;9.104;2023-03-13T01:03:16;9.33;;;3.40;;
8104;SDS011;4095;48.942;9.104;2023-03-13T01:05:42;11.13;;;3.40;;
8104;SDS011;4095;48.942;9.104;2023-03-13T01:08:08;10.77;;;3.60;;
8104;SDS011;4095;48.942;9.104;2023-03-13T01:10:33;11.13;;;3.63;;
8104;SDS011;4095;48.942;9.104;2023-03-13T01:12:59;8.47;;;3.27;;
8104;SDS011;4095;48.942;9.104;2023-03-13T01:15:25;10.87;;;3.40;;
8104;SDS011;4095;48.942;9.104;2023-03-13T01:17:50;10.93;;;3.20;;
8104;SDS011;4095;48.942;9.104;2023-03-13T01:20:16;9.53;;;3.20;;
8104;SDS011;4095;48.942;9.104;2023-03-13T01:22:42;10.53;;;3.70;;
8104;SDS011;4095;48.942;9.104;2023-03-13T01:25:08;10.10;;;3.33;;
8104;SDS011;4095;48.942;9.104;2023-03-13T01:27:33;9.83;;;3.70;;
8104;SDS011;4095;48.942;9.104;2023-03-13T01:29:59;10.33;;;3.53;;
8104;SDS011;4095;48.942;9.104;2023-03-13T01:32:24;11.97;;;3.43;;
8104;SDS011;4095;48.942;9.104;2023-03-13T01:34:50;9.03;;;3.20;;
8104;SDS011;4095;48.942;9.104;2023-03-13T01:37:16;9.13;;;3.00;;
8104;SDS011;4095;48.942;9.104;2023-03-13T01:39:41;10.90;;;3.60;;
8104;SDS011;4095;48.942;9.104;2023-03-13T01:42:07;9.40;;;3.40;;
8104;SDS011;4095;48.942;9.104;2023-03-13T01:44:52;12.67;;;4.10;;
8104;SDS011;4095;48.942;9.104;2023-03-13T01:47:19;12.10;;;3.13;;
8104;SDS011;4095;48.942;9.104;2023-03-13T01:49:45;7.90;;;3.20;;
8104;SDS011;4095;48.942;9.104;2023-03-13T01:52:19;10.03;;;3.07;;
8104;SDS011;4095;48.942;9.104;2023-03-13T01:54:56;9.20;;;3.10;;
8104;SDS011;4095;48.942;9.104;2023-03-13T01:57:31;9.80;;;2.93;;
8104;SDS011;4095;48.942;9.104;2023-03-13T02:00:05;11.00;;;3.53;;
8104;SDS011;4095;48.942;9.104;2023-03-13T02:02:47;9.57;;;2.87;;
8104;SDS011;4095;48.942;9.104;2023-03-13T02:05:16;8.40;;;2.67;;
8104;SDS011;4095;48.942;9.104;2023-03-13T02:07:46;8.50;;;3.17;;
8104;SDS011;4095;48.942;9.104;2023-03-13T02:10:14;10.33;;;3.27;;
8104;SDS011;4095;48.942;9.104;2023-03-13T02:12:42;8.40;;;2.70;;
8104;SDS011;4095;48.942;9.104;2023-03-13T02:17:37;10.00;;;3.10;;
8104;SDS011;4095;48.942;9.104;2023-03-13T02:20:04;7.30;;;2.67;;
8104;SDS011;4095;48.942;9.104;2023-03-13T02:27:49;10.00;;;3.57;;
8104;SDS011;4095;48.942;9.104;2023-03-13T02:30:18;10.27;;;2.70;;
8104;SDS011;4095;48.942;9.104;2023-03-13T02:32:44;6.60;;;2.40;;
8104;SDS011;4095;48.942;9.104;2023-03-13T02:35:11;10.80;;;3.17;;
8104;SDS011;4095;48.942;9.104;2023-03-13T02:37:41;7.17;;;2.90;;
8104;SDS011;4095;48.942;9.104;2023-03-13T02:40:08;8.23;;;3.07;;
8104;SDS011;4095;48.942;9.104;2023-03-13T02:42:40;9.23;;;2.97;;
8104;SDS011;4095;48.942;9.104;2023-03-13T02:45:09;6.27;;;2.73;;
8104;SDS011;4095;48.942;9.104;2023-03-13T02:47:38;8.60;;;2.77;;
8104;SDS011;4095;48.942;9.104;2023-03-13T02:50:03;7.93;;;2.90;;
8104;SDS011;4095;48.942;9.104;2023-03-13T02:52:30;7.33;;;2.77;;
8104;SDS011;4095;48.942;9.104;2023-03-13T02:55:04;9.80;;;3.20;;
8104;SDS011;4095;48.942;9.104;2023-03-13T02:57:33;8.40;;;2.90;;
8104;SDS011;4095;48.942;9.104;2023-03-13T02:59:59;8.00;;;2.83;;
8104;SDS011;4095;48.942;9.104;2023-03-13T03:02:25;8.20;;;3.00;;
8104;SDS011;4095;48.942;9.104;2023-03-13T03:04:51;8.13;;;3.13;;
8104;SDS011;4095;48.942;9.104;2023-03-13T03:07:16;8.17;;;3.10;;
8104;SDS011;4095;48.942;9.104;2023-03-13T03:09:42;6.63;;;2.47;;
8104;SDS011;4095;48.942;9.104;2023-03-13T03:12:07;5.97;;;2.70;;
8104;SDS011;4095;48.942;9.104;2023-03-13T03:14:33;7.20;;;2.60;;
8104;SDS011;4095;48.942;9.104;2023-03-13T03:16:59;7.83;;;2.60;;
8104;SDS011;4095;48.942;9.104;2023-03-13T03:19:25;8.13;;;2.87;;
8104;SDS011;4095;48.942;9.104;2023-03-13T03:21:50;6.27;;;2.80;;
8104;SDS011;4095;48.942;9.104;2023-03-13T03:24:16;8.70;;;2.90;;
8104;SDS011;4095;48.942;9.104;2023-03-13T03:26:41;7.40;;;2.70;;
8104;SDS011;4095;48.942;9.104;2023-03-13T03:29:07;7.97;;;2.70;;
8104;SDS011;4095;48.942;9.104;2023-03-13T03:31:33;7.17;;;2.63;;
8104;SDS011;4095;48.942;9.104;2023-03-13T03:33:59;7.87;;;2.90;;
8104;SDS011;4095;48.942;9.104;2023-03-13T03:36:24;11.20;;;2.97;;
8104;SDS011;4095;48.942;9.104;2023-03-13T03:38:50;7.13;;;2.40;;
8104;SDS011;4095;48.942;9.104;2023-03-13T03:41:17;8.20;;;3.13;;
8104;SDS011;4095;48.942;9.104;2023-03-13T03:43:43;7.37;;;2.43;;
8104;SDS011;4095;48.942;9.104;2023-03-13T03:46:09;9.10;;;2.83;;
8104;SDS011;4095;48.942;9.104;2023-03-13T03:48:35;6.97;;;2.53;;
8104;SDS011;4095;48.942;9.104;2023-03-13T03:51:01;5.90;;;2.20;;
8104;SDS011;4095;48.942;9.104;2023-03-13T03:53:27;5.77;;;2.70;;
8104;SDS011;4095;48.942;9.104;2023-03-13T03:55:53;9.57;;;2.60;;
8104;SDS011;4095;48.942;9.104;2023-03-13T03:58:18;4.67;;;2.10;;
8104;SDS011;4095;48.942;9.104;2023-03-13T04:00:44;4.40;;;1.90;;
8104;SDS011;4095;48.942;9.104;2023-03-13T04:03:11;3.67;;;1.53;;
8104;SDS011;4095;48.942;9.104;2023-03-13T04:05:37;5.20;;;1.87;;
8104;SDS011;4095;48.942;9.104;2023-03-13T04:08:03;4.77;;;1.70;;
8104;SDS011;4095;48.942;9.104;2023-03-13T04:10:29;4.17;;;1.67;;
8104;SDS011;4095;48.942;9.104;2023-03-13T04:12:54;4.43;;;1.70;;
8104;SDS011;4095;48.942;9.104;2023-03-13T04:15:20;3.13;;;1.47;;
8104;SDS011;4095;48.942;9.104;2023-03-13T04:17:46;4.43;;;1.67;;
8104;SDS011;4095;48.942;9.104;2023-03-13T04:20:11;4.00;;;1.67;;
8104;SDS011;4095;48.942;9.104;2023-03-13T04:22:38;4.53;;;1.60;;
8104;SDS011;4095;48.942;9.104;2023-03-13T04:25:04;3.27;;;1.60;;
8104;SDS011;4095;48.942;9.104;2023-03-13T04:27:31;4.40;;;1.63;;
8104;SDS011;4095;48.942;9.104;2023-03-13T04:29:57;2.63;;;1.17;;
8104;SDS011;4095;48.942;9.104;2023-03-13T04:32:23;2.27;;;1.13;;
8104;SDS011;4095;48.942;9.104;2023-03-13T04:34:49;1.83;;;1.27;;
8104;SDS011;4095;48.942;9.104;2023-03-13T04:37:14;3.13;;;1.43;;
8104;SDS011;4095;48.942;9.104;2023-03-13T04:39:40;2.07;;;1.30;;
8104;SDS011;4095;48.942;9.104;2023-03-13T04:42:06;1.93;;;1.00;;
8104;SDS011;4095;48.942;9.104;2023-03-13T04:44:33;1.40;;;1.00;;
8104;SDS011;4095;48.942;9.104;2023-03-13T04:46:58;2.30;;;1.20;;
8104;SDS011;4095;48.942;9.104;2023-03-13T04:49:24;2.63;;;1.03;;
8104;SDS011;4095;48.942;9.104;2023-03-13T04:51:49;2.03;;;1.00;;
8104;SDS011;4095;48.942;9.104;2023-03-13T04:54:15;3.23;;;1.23;;
8104;SDS011;4095;48.942;9.104;2023-03-13T04:56:40;2.30;;;1.00;;
8104;SDS011;4095;48.942;9.104;2023-03-13T04:59:06;4.60;;;1.30;;
8104;SDS011;4095;48.942;9.104;2023-03-13T05:01:32;1.73;;;1.20;;
8104;SDS011;4095;48.942;9.104;2023-03-13T05:03:57;2.13;;;0.83;;
8104;SDS011;4095;48.942;9.104;2023-03-13T05:06:23;2.17;;;1.13;;
8104;SDS011;4095;48.942;9.104;2023-03-13T05:08:48;4.53;;;1.27;;
8104;SDS011;4095;48.942;9.104;2023-03-13T05:11:14;2.23;;;0.80;;
8104;SDS011;4095;48.942;9.104;2023-03-13T05:13:40;1.97;;;1.00;;
8104;SDS011;4095;48.942;9.104;2023-03-13T05:16:05;1.83;;;1.20;;
8104;SDS011;4095;48.942;9.104;2023-03-13T05:18:31;2.00;;;1.10;;
8104;SDS011;4095;48.942;9.104;2023-03-13T05:20:57;2.20;;;0.90;;
8104;SDS011;4095;48.942;9.104;2023-03-13T05:23:22;2.33;;;1.10;;
8104;SDS011;4095;48.942;9.104;2023-03-13T05:25:48;1.20;;;0.70;;
8104;SDS011;4095;48.942;9.104;2023-03-13T05:28:13;1.80;;;1.03;;
8104;SDS011;4095;48.942;9.104;2023-03-13T05:30:39;2.50;;;1.30;;
8104;SDS011;4095;48.942;9.104;2023-03-13T05:33:04;1.00;;;0.90;;
8104;SDS011;4095;48.942;9.104;2023-03-13T05:35:30;1.60;;;1.00;;
8104;SDS011;4095;48.942;9.104;2023-03-13T05:37:56;2.43;;;0.93;;
8104;SDS011;4095;48.942;9.104;2023-03-13T05:40:21;1.77;;;0.80;;
8104;SDS011;4095;48.942;9.104;2023-03-13T05:42:47;1.57;;;0.80;;
8104;SDS011;4095;48.942;9.104;2023-03-13T05:45:12;0.77;;;0.70;;
8104;SDS011;4095;48.942;9.104;2023-03-13T05:47:38;1.10;;;0.80;;
8104;SDS011;4095;48.942;9.104;2023-03-13T05:50:04;1.43;;;0.90;;
8104;SDS011;4095;48.942;9.104;2023-03-13T05:52:31;1.07;;;0.87;;
8104;SDS011;4095;48.942;9.104;2023-03-13T05:54:57;1.50;;;0.80;;
8104;SDS011;4095;48.942;9.104;2023-03-13T05:57:23;0.80;;;0.60;;
8104;SDS011;4095;48.942;9.104;2023-03-13T05:59:48;1.30;;;0.57;;
8104;SDS011;4095;48.942;9.104;2023-03-13T06:02:14;2.20;;;1.10;;
8104;SDS011;4095;48.942;9.104;2023-03-13T06:04:39;1.67;;;0.80;;
8104;SDS011;4095;48.942;9.104;2023-03-13T06:07:05;1.03;;;0.87;;
8104;SDS011;4095;48.942;9.104;2023-03-13T06:09:31;3.03;;;0.90;;
8104;SDS011;4095;48.942;9.104;2023-03-13T06:11:56;1.23;;;1.00;;
8104;SDS011;4095;48.942;9.104;2023-03-13T06:14:22;1.47;;;0.80;;
8104;SDS011;4095;48.942;9.104;2023-03-13T06:16:48;0.97;;;0.80;;
8104;SDS011;4095;48.942;9.104;2023-03-13T06:19:13;1.00;;;1.00;;
8104;SDS011;4095;48.942;9.104;2023-03-13T06:21:39;0.70;;;0.70;;
8104;SDS011;4095;48.942;9.104;2023-03-13T06:24:05;0.73;;;0.70;;
8104;SDS011;4095;48.942;9.104;2023-03-13T06:26:30;0.70;;;0.70;;
8104;SDS011;4095;48.942;9.104;2023-03-13T06:28:56;0.87;;;0.67;;
8104;SDS011;4095;48.942;9.104;2023-03-13T06:31:22;1.73;;;0.63;;
8104;SDS011;4095;48.942;9.104;2023-03-13T06:33:48;2.07;;;0.77;;
8104;SDS011;4095;48.942;9.104;2023-03-13T06:36:17;0.90;;;0.80;;
8104;SDS011;4095;48.942;9.104;2023-03-13T06:38:42;1.47;;;0.70;;
8104;SDS011;4095;48.942;9.104;2023-03-13T06:41:08;1.47;;;0.97;;
8104;SDS011;4095;48.942;9.104;2023-03-13T06:43:34;1.17;;;0.60;;
8104;SDS011;4095;48.942;9.104;2023-03-13T06:46:03;0.80;;;0.70;;
8104;SDS011;4095;48.942;9.104;2023-03-13T06:48:29;1.93;;;0.67;;
8104;SDS011;4095;48.942;9.104;2023-03-13T06:50:55;0.63;;;0.63;;
8104;SDS011;4095;48.942;9.104;2023-03-13T06:53:20;0.60;;;0.60;;
8104;SDS011;4095;48.942;9.104;2023-03-13T06:55:46;0.87;;;0.70;;
8104;SDS011;4095;48.942;9.104;2023-03-13T06:58:13;1.13;;;0.60;;
8104;SDS011;4095;48.942;9.104;2023-03-13T07:00:39;3.67;;;0.90;;
8104;SDS011;4095;48.942;9.104;2023-03-13T07:03:06;1.60;;;0.67;;
8104;SDS011;4095;48.942;9.104;2023-03-13T07:05:32;1.03;;;0.67;;
8104;SDS011;4095;48.942;9.104;2023-03-13T07:07:58;1.83;;;0.73;;
8104;SDS011;4095;48.942;9.104;2023-03-13T07:10:23;1.63;;;0.60;;
8104;SDS011;4095;48.942;9.104;2023-03-13T07:12:49;1.33;;;0.60;;
8104;SDS011;4095;48.942;9.104;2023-03-13T07:15:15;2.27;;;0.77;;
8104;SDS011;4095;48.942;9.104;2023-03-13T07:17:40;0.60;;;0.57;;
8104;SDS011;4095;48.942;9.104;2023-03-13T07:20:06;0.80;;;0.60;;
8104;SDS011;4095;48.942;9.104;2023-03-13T07:22:34;1.77;;;0.90;;
8104;SDS011;4095;48.942;9.104;2023-03-13T07:25:00;0.97;;;0.70;;
8104;SDS011;4095;48.942;9.104;2023-03-13T07:27:26;1.80;;;0.60;;
8104;SDS011;4095;48.942;9.104;2023-03-13T07:29:51;0.93;;;0.50;;
8104;SDS011;4095;48.942;9.104;2023-03-13T07:32:17;1.07;;;0.80;;
8104;SDS011;4095;48.942;9.104;2023-03-13T07:34:42;1.07;;;0.60;;
8104;SDS011;4095;48.942;9.104;2023-03-13T07:37:09;0.60;;;0.60;;
8104;SDS011;4095;48.942;9.104;2023-03-13T07:39:38;1.33;;;0.60;;
8104;SDS011;4095;48.942;9.104;2023-03-13T07:42:04;0.60;;;0.60;;
8104;SDS011;4095;48.942;9.104;2023-03-13T07:44:30;0.50;;;0.50;;
8104;SDS011;4095;48.942;9.104;2023-03-13T07:46:59;1.60;;;1.30;;
8104;SDS011;4095;48.942;9.104;2023-03-13T07:49:25;0.40;;;0.40;;
8104;SDS011;4095;48.942;9.104;2023-03-13T07:51:51;0.77;;;0.50;;
8104;SDS011;4095;48.942;9.104;2023-03-13T07:54:16;1.10;;;0.60;;
8104;SDS011;4095;48.942;9.104;2023-03-13T07:56:42;1.23;;;0.70;;
8104;SDS011;4095;48.942;9.104;2023-03-13T07:59:07;0.70;;;0.70;;
8104;SDS011;4095;48.942;9.104;2023-03-13T08:01:33;2.40;;;0.93;;
8104;SDS011;4095;48.942;9.104;2023-03-13T08:03:59;1.13;;;0.53;;
8104;SDS011;4095;48.942;9.104;2023-03-13T08:06:25;1.67;;;0.63;;
8104;SDS011;4095;48.942;9.104;2023-03-13T08:08:51;1.50;;;0.57;;
8104;SDS011;4095;48.942;9.104;2023-03-13T08:11:21;1.07;;;0.70;;
8104;SDS011;4095;48.942;9.104;2023-03-13T08:13:49;0.83;;;0.70;;
8104;SDS011;4095;48.942;9.104;2023-03-13T08:16:16;1.27;;;0.80;;
8104;SDS011;4095;48.942;9.104;2023-03-13T08:18:44;1.10;;;0.97;;
8104;SDS011;4095;48.942;9.104;2023-03-13T08:21:18;1.07;;;0.73;;
8104;SDS011;4095;48.942;9.104;2023-03-13T08:23:46;0.93;;;0.70;;
8104;SDS011;4095;48.942;9.104;2023-03-13T08:26:13;1.33;;;0.90;;
8104;SDS011;4095;48.942;9.104;2023-03-13T08:28:44;0.83;;;0.77;;
8104;SDS011;4095;48.942;9.104;2023-03-13T08:31:15;1.10;;;0.80;;
8104;SDS011;4095;48.942;9.104;2023-03-13T08:33:42;3.17;;;1.27;;
8104;SDS011;4095;48.942;9.104;2023-03-13T08:36:16;3.63;;;1.00;;
8104;SDS011;4095;48.942;9.104;2023-03-13T08:38:44;1.27;;;0.80;;
8104;SDS011;4095;48.942;9.104;2023-03-13T08:41:15;1.67;;;0.87;;
8104;SDS011;4095;48.942;9.104;2023-03-13T08:43:43;0.83;;;0.77;;
8104;SDS011;4095;48.942;9.104;2023-03-13T08:46:09;1.00;;;0.77;;
8104;SDS011;4095;48.942;9.104;2023-03-13T08:48:34;2.67;;;1.10;;
8104;SDS011;4095;48.942;9.104;2023-03-13T08:53:36;1.27;;;0.90;;
8104;SDS011;4095;48.942;9.104;2023-03-13T08:56:02;0.90;;;0.80;;
8104;SDS011;4095;48.942;9.104;2023-03-13T08:58:29;0.80;;;0.70;;
8104;SDS011;4095;48.942;9.104;2023-03-13T09:01:05;2.07;;;1.00;;
8104;SDS011;4095;48.942;9.104;2023-03-13T09:03:32;1.03;;;0.83;;
8104;SDS011;4095;48.942;9.104;2023-03-13T09:05:58;1.07;;;0.90;;
8104;SDS011;4095;48.942;9.104;2023-03-13T09:08:25;1.87;;;0.77;;
8104;SDS011;4095;48.942;9.104;2023-03-13T09:10:55;1.40;;;1.00;;
8104;SDS011;4095;48.942;9.104;2023-03-13T09:13:29;1.00;;;0.90;;
8104;SDS011;4095;48.942;9.104;2023-03-13T09:15:56;1.97;;;0.80;;
8104;SDS011;4095;48.942;9.104;2023-03-13T09:18:23;2.13;;;0.93;;
8104;SDS011;4095;48.942;9.104;2023-03-13T09:20:49;2.50;;;1.17;;
8104;SDS011;4095;48.942;9.104;2023-03-13T09:23:16;1.70;;;1.17;;
8104;SDS011;4095;48.942;9.104;2023-03-13T09:25:42;1.80;;;1.10;;
8104;SDS011;4095;48.942;9.104;2023-03-13T09:28:07;1.43;;;1.10;;
8104;SDS011;4095;48.942;9.104;2023-03-13T09:30:33;2.83;;;1.23;;
8104;SDS011;4095;48.942;9.104;2023-03-13T09:32:59;1.70;;;1.27;;
8104;SDS011;4095;48.942;9.104;2023-03-13T09:35:24;2.03;;;1.47;;
8104;SDS011;4095;48.942;9.104;2023-03-13T09:37:50;2.53;;;1.40;;
8104;SDS011;4095;48.942;9.104;2023-03-13T09:40:20;2.70;;;1.40;;
8104;SDS011;4095;48.942;9.104;2023-03-13T09:42:48;4.20;;;1.30;;
8104;SDS011;4095;48.942;9.104;2023-03-13T09:45:28;2.87;;;1.50;;
8104;SDS011;4095;48.942;9.104;2023-03-13T09:48:25;2.10;;;1.30;;
8104;SDS011;4095;48.942;9.104;2023-03-13T09:53:41;2.80;;;1.27;;
8104;SDS011;4095;48.942;9.104;2023-03-13T09:56:33;1.43;;;1.30;;
8104;SDS011;4095;48.942;9.104;2023-03-13T10:01:58;2.73;;;1.40;;
8104;SDS011;4095;48.942;9.104;2023-03-13T10:04:29;2.37;;;1.43;;
8104;SDS011;4095;48.942;9.104;2023-03-13T10:07:03;1.67;;;1.30;;
8104;SDS011;4095;48.942;9.104;2023-03-13T10:09:30;3.03;;;1.20;;
8104;SDS011;4095;48.942;9.104;2023-03-13T10:12:11;2.73;;;1.50;;
8104;SDS011;4095;48.942;9.104;2023-03-13T10:14:41;3.20;;;1.40;;
8104;SDS011;4095;48.942;9.104;2023-03-13T10:19:54;3.17;;;1.87;;
8104;SDS011;4095;48.942;9.104;2023-03-13T10:22:44;1.97;;;1.37;;
8104;SDS011;4095;48.942;9.104;2023-03-13T10:28:04;1.73;;;1.07;;
8104;SDS011;4095;48.942;9.104;2023-03-13T10:30:34;2.07;;;1.33;;
8104;SDS011;4095;48.942;9.104;2023-03-13T10:35:39;1.37;;;1.20;;
8104;SDS011;4095;48.942;9.104;2023-03-13T10:38:10;1.70;;;1.13;;
8104;SDS011;4095;48.942;9.104;2023-03-13T10:40:42;2.37;;;1.10;;
8104;SDS011;4095;48.942;9.104;2023-03-13T10:43:12;2.27;;;1.40;;
8104;SDS011;4095;48.942;9.104;2023-03-13T10:45:42;2.73;;;1.60;;
8104;SDS011;4095;48.942;9.104;2023-03-13T10:48:14;2.03;;;1.27;;
8104;SDS011;4095;48.942;9.104;2023-03-13T10:50:45;2.00;;;1.25;;
8104;SDS011;4095;48.942;9.104;2023-03-13T10:53:20;3.05;;;1.20;;
8104;SDS011;4095;48.942;9.104;2023-03-13T10:55:53;3.67;;;1.30;;
8104;SDS011;4095;48.942;9.104;2023-03-13T10:58:22;2.60;;;1.40;;
8104;SDS011;4095;48.942;9.104;2023-03-13T11:01:07;1.88;;;1.20;;
8104;SDS011;4095;48.942;9.104;2023-03-13T11:03:42;1.85;;;1.30;;
8104;SDS011;4095;48.942;9.104;2023-03-13T11:06:26;2.05;;;1.00;;
8104;SDS011;4095;48.942;9.104;2023-03-13T11:11:47;1.35;;;0.98;;
8104;SDS011;4095;48.942;9.104;2023-03-13T11:14:22;2.28;;;1.40;;
8104;SDS011;4095;48.942;9.104;2023-03-13T11:24:52;2.35;;;1.00;;
8104;SDS011;4095;48.942;9.104;2023-03-13T11:27:35;1.33;;;1.00;;
8104;SDS011;4095;48.942;9.104;2023-03-13T11:35:53;2.28;;;1.17;;
8104;SDS011;4095;48.942;9.104;2023-03-13T11:39:17;2.65;;;1.15;;
8104;SDS011;4095;48.942;9.104;2023-03-13T11:44:37;1.75;;;1.00;;
8104;SDS011;4095;48.942;9.104;2023-03-13T11:47:36;1.35;;;1.00;;
8104;SDS011;4095;48.942;9.104;2023-03-13T12:01:35;2.78;;;1.30;;
8104;SDS011;4095;48.942;9.104;2023-03-13T12:04:10;1.30;;;1.10;;
8104;SDS011;4095;48.942;9.104;2023-03-13T12:06:42;1.60;;;1.05;;
8104;SDS011;4095;48.942;9.104;2023-03-13T12:09:25;2.35;;;1.20;;
8104;SDS011;4095;48.942;9.104;2023-03-13T12:11:59;1.98;;;1.15;;
8104;SDS011;4095;48.942;9.104;2023-03-13T12:17:07;2.00;;;1.05;;
8104;SDS011;4095;48.942;9.104;2023-03-13T12:19:45;1.45;;;1.08;;
8104;SDS011;4095;48.942;9.104;2023-03-13T12:25:05;1.42;;;0.93;;
8104;SDS011;4095;48.942;9.104;2023-03-13T12:33:51;1.48;;;1.00;;
8104;SDS011;4095;48.942;9.104;2023-03-13T12:36:32;2.20;;;0.98;;
8104;SDS011;4095;48.942;9.104;2023-03-13T12:39:09;2.13;;;1.30;;
8104;SDS011;4095;48.942;9.104;2023-03-13T12:41:59;1.52;;;0.80;;
8104;SDS011;4095;48.942;9.104;2023-03-13T12:44:31;2.13;;;1.20;;
8104;SDS011;4095;48.942;9.104;2023-03-13T12:47:08;1.35;;;1.00;;
8104;SDS011;4095;48.942;9.104;2023-03-13T12:52:37;1.13;;;0.90;;
8104;SDS011;4095;48.942;9.104;2023-03-13T13:00:50;1.98;;;0.98;;
8104;SDS011;4095;48.942;9.104;2023-03-13T13:06:11;2.17;;;1.00;;
8104;SDS011;4095;48.942;9.104;2023-03-13T13:13:57;2.05;;;1.00;;
8104;SDS011;4095;48.942;9.104;2023-03-13T13:16:50;1.50;;;1.20;;
8104;SDS011;4095;48.942;9.104;2023-03-13T13:24:58;1.77;;;1.05;;
8104;SDS011;4095;48.942;9.104;2023-03-13T13:29:56;3.10;;;1.15;;
8104;SDS011;4095;48.942;9.104;2023-03-13T13:32:36;1.60;;;1.02;;
8104;SDS011;4095;48.942;9.104;2023-03-13T13:43:28;2.88;;;1.23;;
8104;SDS011;4095;48.942;9.104;2023-03-13T13:46:00;2.35;;;1.10;;
8104;SDS011;4095;48.942;9.104;2023-03-13T13:48:31;1.10;;;0.90;;
8104;SDS011;4095;48.942;9.104;2023-03-13T14:01:44;2.25;;;1.05;;
8104;SDS011;4095;48.942;9.104;2023-03-13T14:04:29;2.95;;;1.17;;
8104;SDS011;4095;48.942;9.104;2023-03-13T14:07:00;3.00;;;0.95;;
8104;SDS011;4095;48.942;9.104;2023-03-13T14:12:50;1.90;;;1.13;;
8104;SDS011;4095;48.942;9.104;2023-03-13T14:17:47;1.08;;;0.70;;
8104;SDS011;4095;48.942;9.104;2023-03-13T14:23:07;3.33;;;1.20;;
8104;SDS011;4095;48.942;9.104;2023-03-13T14:25:42;3.22;;;0.98;;
8104;SDS011;4095;48.942;9.104;2023-03-13T14:30:41;3.28;;;1.00;;
8104;SDS011;4095;48.942;9.104;2023-03-13T14:33:08;2.17;;;1.02;;
8104;SDS011;4095;48.942;9.104;2023-03-13T14:35:33;2.78;;;1.10;;
8104;SDS011;4095;48.942;9.104;2023-03-13T14:38:02;1.95;;;1.10;;
8104;SDS011;4095;48.942;9.104;2023-03-13T14:40:28;2.97;;;0.70;;
8104;SDS011;4095;48.942;9.104;2023-03-13T14:42:57;2.28;;;1.05;;
8104;SDS011;4095;48.942;9.104;2023-03-13T14:45:26;1.10;;;0.82;;
8104;SDS011;4095;48.942;9.104;2023-03-13T14:48:01;2.58;;;1.10;;
8104;SDS011;4095;48.942;9.104;2023-03-13T14:50:30;1.58;;;0.60;;
8104;SDS011;4095;48.942;9.104;2023-03-13T14:52:58;0.88;;;0.60;;
8104;SDS011;4095;48.942;9.104;2023-03-13T14:55:29;2.45;;;1.10;;
8104;SDS011;4095;48.942;9.104;2023-03-13T15:00:35;3.17;;;0.88;;
8104;SDS011;4095;48.942;9.104;2023-03-13T15:06:23;2.67;;;0.70;;
8104;SDS011;4095;48.942;9.104;2023-03-13T15:08:36;1.15;;;0.70;;
8104;SDS011;4095;48.942;9.104;2023-03-13T15:13:45;2.13;;;1.00;;
8104;SDS011;4095;48.942;9.104;2023-03-13T15:16:13;1.80;;;1.10;;
8104;SDS011;4095;48.942;9.104;2023-03-13T15:18:42;1.92;;;1.00;;
8104;SDS011;4095;48.942;9.104;2023-03-13T15:23:36;2.00;;;1.00;;
8104;SDS011;4095;48.942;9.104;2023-03-13T15:26:02;1.90;;;0.95;;
8104;SDS011;4095;48.942;9.104;2023-03-13T15:28:29;2.65;;;1.10;;
8104;SDS011;4095;48.942;9.104;2023-03-13T15:30:55;2.47;;;1.05;;
8104;SDS011;4095;48.942;9.104;2023-03-13T15:33:22;1.40;;;0.80;;
8104;SDS011;4095;48.942;9.104;2023-03-13T15:35:50;2.28;;;0.70;;
8104;SDS011;4095;48.942;9.104;2023-03-13T15:38:19;2.78;;;0.80;;
8104;SDS011;4095;48.942;9.104;2023-03-13T15:40:47;2.67;;;1.00;;
8104;SDS011;4095;48.942;9.104;2023-03-13T15:43:13;1.75;;;1.10;;
8104;SDS011;4095;48.942;9.104;2023-03-13T15:45:40;1.73;;;0.75;;
8104;SDS011;4095;48.942;9.104;2023-03-13T15:48:11;2.05;;;1.15;;
8104;SDS011;4095;48.942;9.104;2023-03-13T15:50:40;0.90;;;0.77;;
8104;SDS011;4095;48.942;9.104;2023-03-13T15:53:10;4.80;;;1.00;;
8104;SDS011;4095;48.942;9.104;2023-03-13T15:55:48;2.38;;;0.90;;
8104;SDS011;4095;48.942;9.104;2023-03-13T15:58:15;0.75;;;0.73;;
8104;SDS011;4095;48.942;9.104;2023-03-13T16:00:42;1.33;;;0.95;;
8104;SDS011;4095;48.942;9.104;2023-03-13T16:03:12;1.52;;;1.00;;
8104;SDS011;4095;48.942;9.104;2023-03-13T16:05:43;1.17;;;0.88;;
8104;SDS011;4095;48.942;9.104;2023-03-13T16:08:14;2.83;;;1.00;;
8104;SDS011;4095;48.942;9.104;2023-03-13T16:10:41;0.82;;;0.70;;
8104;SDS011;4095;48.942;9.104;2023-03-13T16:13:09;1.25;;;0.80;;
8104;SDS011;4095;48.942;9.104;2023-03-13T16:15:35;1.80;;;0.80;;
8104;SDS011;4095;48.942;9.104;2023-03-13T16:18:01;1.67;;;1.00;;
8104;SDS011;4095;48.942;9.104;2023-03-13T16:20:27;1.35;;;0.70;;
8104;SDS011;4095;48.942;9.104;2023-03-13T16:22:55;2.92;;;0.90;;
8104;SDS011;4095;48.942;9.104;2023-03-13T16:25:21;1.98;;;1.20;;
8104;SDS011;4095;48.942;9.104;2023-03-13T16:27:48;1.77;;;1.30;;
8104;SDS011;4095;48.942;9.104;2023-03-13T16:30:15;1.67;;;1.00;;
8104;SDS011;4095;48.942;9.104;2023-03-13T16:32:49;1.92;;;0.88;;
8104;SDS011;4095;48.942;9.104;2023-03-13T16:35:15;2.53;;;1.40;;
8104;SDS011;4095;48.942;9.104;2023-03-13T16:37:41;1.90;;;1.00;;
8104;SDS011;4095;48.942;9.104;2023-03-13T16:40:49;1.92;;;0.75;;
8104;SDS011;4095;48.942;9.104;2023-03-13T16:42:57;1.05;;;0.80;;
8104;SDS011;4095;48.942;9.104;2023-03-13T16:45:23;1.23;;;0.80;;
8104;SDS011;4095;48.942;9.104;2023-03-13T16:47:49;2.07;;;0.90;;
8104;SDS011;4095;48.942;9.104;2023-03-13T16:52:47;2.23;;;0.90;;
8104;SDS011;4095;48.942;9.104;2023-03-13T16:55:13;3.03;;;1.20;;
8104;SDS011;4095;48.942;9.104;2023-03-13T16:57:38;2.17;;;1.00;;
8104;SDS011;4095;48.942;9.104;2023-03-13T17:00:15;2.40;;;0.80;;
8104;SDS011;4095;48.942;9.104;2023-03-13T17:02:42;1.77;;;1.17;;
8104;SDS011;4095;48.942;9.104;2023-03-13T17:05:08;2.53;;;1.80;;
8104;SDS011;4095;48.942;9.104;2023-03-13T17:07:36;3.03;;;2.00;;
8104;SDS011;4095;48.942;9.104;2023-03-13T17:10:03;4.00;;;1.20;;
8104;SDS011;4095;48.942;9.104;2023-03-13T17:12:39;1.87;;;1.03;;
8104;SDS011;4095;48.942;9.104;2023-03-13T17:15:04;2.17;;;1.80;;
8104;SDS011;4095;48.942;9.104;2023-03-13T17:17:30;2.63;;;1.80;;
8104;SDS011;4095;48.942;9.104;2023-03-13T17:19:57;3.57;;;1.70;;
8104;SDS011;4095;48.942;9.104;2023-03-13T17:22:22;2.50;;;1.60;;
8104;SDS011;4095;48.942;9.104;2023-03-13T17:24:48;2.47;;;1.23;;
8104;SDS011;4095;48.942;9.104;2023-03-13T17:27:14;2.30;;;1.37;;
8104;SDS011;4095;48.942;9.104;2023-03-13T17:29:42;1.57;;;1.30;;
8104;SDS011;4095;48.942;9.104;2023-03-13T17:32:12;2.67;;;1.30;;
8104;SDS011;4095;48.942;9.104;2023-03-13T17:34:38;1.20;;;1.10;;
8104;SDS011;4095;48.942;9.104;2023-03-13T17:37:10;2.53;;;1.47;;
8104;SDS011;4095;48.942;9.104;2023-03-13T17:39:39;3.37;;;1.40;;
8104;SDS011;4095;48.942;9.104;2023-03-13T17:42:04;3.17;;;2.13;;
8104;SDS011;4095;48.942;9.104;2023-03-13T17:44:30;11.80;;;4.93;;